Time,TemperatureF,DewpointF,PressureIn,WindDirection,WindDirectionDegrees,WindSpeedMPH,WindSpeedGustMPH,Humidity,HourlyPrecipIn,Conditions,Clouds,dailyrainin,SolarRadiationWatts/m^2,SoftwareType,DateUTC
2013-02-03 01:00:00,2.0,1.0,-100.00,North,0,0.0,-999.0,95,-99.99,,,-99.99,0.000000,,2013-02-03 06:00:00,
2013-02-03 01:42:00,2.0,1.0,-100.00,North,0,0.0,-999.0,95,-99.99,,,-99.99,0.000000,,2013-02-03 06:42:00,
2013-02-03 01:52:00,2.0,1.0,-100.00,North,0,0.0,-999.0,95,-99.99,,,-99.99,0.000000,,2013-02-03 06:52:00,
2013-02-03 02:00:00,4.0,3.0,-100.00,West,270,0.0,-999.0,95,-99.99,,,-99.99,0.000000,,2013-02-03 07:00:00,
2013-02-03 02:42:00,4.0,3.0,-100.00,West,270,0.0,-999.0,95,-99.99,,,-99.99,0.000000,,2013-02-03 07:42:00,
2013-02-03 02:52:00,4.0,3.0,-100.00,West,270,0.0,-999.0,95,-99.99,,,-99.99,0.000000,,2013-02-03 07:52:00,
2013-02-03 04:00:00,9.0,8.0,-100.00,South,180,0.0,-999.0,96,-99.99,,,-99.99,0.000000,,2013-02-03 09:00:00,
2013-02-03 04:42:00,9.0,8.0,-100.00,South,180,0.0,-999.0,96,-99.99,,,-99.99,0.000000,,2013-02-03 09:42:00,
2013-02-03 04:52:00,9.0,8.0,-100.00,South,180,0.0,-999.0,96,-99.99,,,-99.99,0.000000,,2013-02-03 09:52:00,
2013-02-03 05:00:00,9.0,8.0,-100.00,SSE,157,1.0,-999.0,95,-99.99,,,-99.99,0.000000,,2013-02-03 10:00:00,
2013-02-03 05:42:00,9.0,8.0,-100.00,SSE,157,1.0,-999.0,95,-99.99,,,-99.99,0.000000,,2013-02-03 10:42:00,
2013-02-03 05:53:00,9.0,8.0,-100.00,SSE,157,1.0,-999.0,95,-99.99,,,-99.99,0.000000,,2013-02-03 10:53:00,
2013-02-03 06:00:00,10.0,8.0,-100.00,SSE,157,3.0,-999.0,93,-99.99,,,-99.99,0.000000,,2013-02-03 11:00:00,
2013-02-03 06:42:00,10.0,8.0,-100.00,SSE,157,3.0,-999.0,93,-99.99,,,-99.99,0.000000,,2013-02-03 11:42:00,
2013-02-03 06:52:00,10.0,8.0,-100.00,SSE,157,3.0,-999.0,93,-99.99,,,-99.99,0.000000,,2013-02-03 11:52:00,
2013-02-03 07:00:00,10.0,9.0,-100.00,SSE,157,3.0,-999.0,93,-99.99,,,-99.99,0.000000,,2013-02-03 12:00:00,
2013-02-03 07:42:00,10.0,9.0,-100.00,SSE,157,3.0,-999.0,93,-99.99,,,-99.99,0.000000,,2013-02-03 12:42:00,
2013-02-03 07:53:00,10.0,9.0,-100.00,SSE,157,3.0,-999.0,93,-99.99,,,-99.99,0.000000,,2013-02-03 12:53:00,
2013-02-03 08:00:00,11.0,9.0,-100.00,SE,135,1.0,-999.0,94,-99.99,,,-99.99,0.000000,,2013-02-03 13:00:00,
2013-02-03 08:32:00,11.0,9.0,-100.00,SE,135,1.0,-999.0,94,-99.99,,,-99.99,0.000000,,2013-02-03 13:32:00,
2013-02-03 08:42:00,11.0,9.0,-100.00,SE,135,1.0,-999.0,94,-99.99,,,-99.99,0.000000,,2013-02-03 13:42:00,
2013-02-03 08:52:00,11.0,9.0,-100.00,SE,135,1.0,-999.0,94,-99.99,,,-99.99,0.000000,,2013-02-03 13:52:00,
2013-02-03 10:00:00,14.0,13.0,-100.00,WSW,247,1.0,-999.0,97,-99.99,,,-99.99,52.200001,,2013-02-03 15:00:00,
2013-02-03 10:42:00,14.0,13.0,-100.00,WSW,247,1.0,-999.0,97,-99.99,,,-99.99,52.200001,,2013-02-03 15:42:00,
2013-02-03 10:52:00,14.0,13.0,-100.00,WSW,247,1.0,-999.0,97,-99.99,,,-99.99,52.200001,,2013-02-03 15:52:00,
2013-02-03 11:00:00,16.0,16.0,-100.00,West,270,2.0,-999.0,98,-99.99,,,-99.99,83.519997,,2013-02-03 16:00:00,
2013-02-03 11:42:00,16.0,16.0,-100.00,West,270,2.0,-999.0,98,-99.99,,,-99.99,83.519997,,2013-02-03 16:42:00,
2013-02-03 11:52:00,16.0,16.0,-100.00,West,270,2.0,-999.0,98,-99.99,,,-99.99,83.519997,,2013-02-03 16:52:00,
2013-02-03 12:00:00,19.0,18.0,-100.00,West,270,7.0,-999.0,99,-99.99,,,-99.99,110.199997,,2013-02-03 17:00:00,
2013-02-03 12:42:00,19.0,18.0,-100.00,West,270,7.0,-999.0,99,-99.99,,,-99.99,110.199997,,2013-02-03 17:42:00,
2013-02-03 12:52:00,19.0,18.0,-100.00,West,270,7.0,-999.0,99,-99.99,,,-99.99,110.199997,,2013-02-03 17:52:00,
2013-02-03 13:00:00,18.0,18.0,-100.00,West,270,11.0,-999.0,98,-99.99,,,-99.99,155.440002,,2013-02-03 18:00:00,
2013-02-03 13:42:00,18.0,18.0,-100.00,West,270,11.0,-999.0,98,-99.99,,,-99.99,155.440002,,2013-02-03 18:42:00,
2013-02-03 13:52:00,18.0,18.0,-100.00,West,270,11.0,-999.0,98,-99.99,,,-99.99,155.440002,,2013-02-03 18:52:00,
2013-02-03 14:00:00,18.0,18.0,-100.00,WNW,292,11.0,-999.0,99,-99.99,,,-99.99,218.080002,,2013-02-03 19:00:00,
2013-02-03 14:42:00,18.0,18.0,-100.00,WNW,292,11.0,-999.0,99,-99.99,,,-99.99,218.080002,,2013-02-03 19:42:00,
2013-02-03 14:52:00,18.0,18.0,-100.00,WNW,292,11.0,-999.0,99,-99.99,,,-99.99,218.080002,,2013-02-03 19:52:00,
2013-02-03 15:00:00,18.0,17.0,-100.00,WNW,292,10.0,-999.0,98,-99.99,,,-99.99,175.160004,,2013-02-03 20:00:00,
2013-02-03 15:42:00,18.0,17.0,-100.00,WNW,292,10.0,-999.0,98,-99.99,,,-99.99,175.160004,,2013-02-03 20:42:00,
2013-02-03 15:52:00,18.0,17.0,-100.00,WNW,292,10.0,-999.0,98,-99.99,,,-99.99,175.160004,,2013-02-03 20:52:00,
2013-02-03 16:00:00,17.0,16.0,-100.00,WNW,292,11.0,-999.0,95,-99.99,,,-99.99,113.680000,,2013-02-03 21:00:00,
2013-02-03 16:42:00,17.0,16.0,-100.00,WNW,292,11.0,-999.0,95,-99.99,,,-99.99,113.680000,,2013-02-03 21:42:00,
2013-02-03 16:52:00,17.0,16.0,-100.00,WNW,292,11.0,-999.0,95,-99.99,,,-99.99,113.680000,,2013-02-03 21:52:00,
2013-02-03 17:00:00,17.0,15.0,-100.00,WNW,292,8.0,-999.0,90,-99.99,,,-99.99,60.320000,,2013-02-03 22:00:00,
2013-02-03 17:42:00,17.0,15.0,-100.00,WNW,292,8.0,-999.0,90,-99.99,,,-99.99,60.320000,,2013-02-03 22:42:00,
2013-02-03 17:52:00,17.0,15.0,-100.00,WNW,292,8.0,-999.0,90,-99.99,,,-99.99,60.320000,,2013-02-03 22:52:00,
2013-02-03 18:00:00,17.0,14.0,-100.00,WNW,292,7.0,-999.0,86,-99.99,,,-99.99,15.080000,,2013-02-03 23:00:00,
2013-02-03 18:42:00,17.0,14.0,-100.00,WNW,292,7.0,-999.0,86,-99.99,,,-99.99,15.080000,,2013-02-03 23:42:00,
2013-02-03 18:52:00,17.0,14.0,-100.00,WNW,292,7.0,-999.0,86,-99.99,,,-99.99,15.080000,,2013-02-03 23:52:00,
2013-02-03 19:00:00,17.0,14.0,-100.00,NW,315,4.0,-999.0,88,-99.99,,,-99.99,0.000000,,2013-02-04 00:00:00,
2013-02-03 19:42:00,17.0,14.0,-100.00,NW,315,4.0,-999.0,88,-99.99,,,-99.99,0.000000,,2013-02-04 00:42:00,
2013-02-03 19:52:00,17.0,14.0,-100.00,NW,315,4.0,-999.0,88,-99.99,,,-99.99,0.000000,,2013-02-04 00:52:00,
2013-02-03 20:00:00,17.0,14.0,-100.00,WSW,247,1.0,-999.0,89,-99.99,,,-99.99,0.000000,,2013-02-04 01:00:00,
2013-02-03 20:42:00,17.0,14.0,-100.00,WSW,247,1.0,-999.0,89,-99.99,,,-99.99,0.000000,,2013-02-04 01:42:00,
2013-02-03 20:52:00,17.0,14.0,-100.00,WSW,247,1.0,-999.0,89,-99.99,,,-99.99,0.000000,,2013-02-04 01:52:00,
2013-02-03 21:00:00,17.0,14.0,-100.00,NW,315,4.0,-999.0,86,-99.99,,,-99.99,0.000000,,2013-02-04 02:00:00,
2013-02-03 21:42:00,17.0,14.0,-100.00,NW,315,4.0,-999.0,86,-99.99,,,-99.99,0.000000,,2013-02-04 02:42:00,
2013-02-03 21:52:00,17.0,14.0,-100.00,NW,315,4.0,-999.0,86,-99.99,,,-99.99,0.000000,,2013-02-04 02:52:00,
2013-02-03 22:00:00,17.0,14.0,-100.00,NW,315,0.0,-999.0,89,-99.99,,,-99.99,0.000000,,2013-02-04 03:00:00,
2013-02-03 22:42:00,17.0,14.0,-100.00,NW,315,0.0,-999.0,89,-99.99,,,-99.99,0.000000,,2013-02-04 03:42:00,
2013-02-03 22:52:00,17.0,14.0,-100.00,NW,315,0.0,-999.0,89,-99.99,,,-99.99,0.000000,,2013-02-04 03:52:00,
2013-02-03 23:00:00,16.0,15.0,-100.00,East,90,0.0,-999.0,93,-99.99,,,-99.99,0.000000,,2013-02-04 04:00:00,
2013-02-03 23:32:00,16.0,15.0,-100.00,East,90,0.0,-999.0,93,-99.99,,,-99.99,0.000000,,2013-02-04 04:32:00,
2013-02-03 23:42:00,16.0,15.0,-100.00,East,90,0.0,-999.0,93,-99.99,,,-99.99,0.000000,,2013-02-04 04:42:00,
2013-02-03 23:52:00,16.0,15.0,-100.00,East,90,0.0,-999.0,93,-99.99,,,-99.99,0.000000,,2013-02-04 04:52:00,